sensor_id;sensor_type;location;lat;lon;timestamp;pressure;altitude;pressure_sealevel;temperature;humidity
61961;BME280;47923;42.506;24.192;2023-05-25T00:01:08;95492.06;;;9.95;94.17
61961;BME280;47923;42.506;24.192;2023-05-25T00:03:33;95466.50;;;9.73;93.68
61961;BME280;47923;42.506;24.192;2023-05-25T00:06:00;95433.84;;;9.59;93.75
61961;BME280;47923;42.506;24.192;2023-05-25T00:08:26;95495.72;;;9.87;92.80
61961;BME280;47923;42.506;24.192;2023-05-25T00:10:52;95501.50;;;9.85;93.61
61961;BME280;47923;42.506;24.192;2023-05-25T00:13:18;95393.19;;;9.17;94.77
61961;BME280;47923;42.506;24.192;2023-05-25T00:15:43;95287.28;;;8.46;92.56
61961;BME280;47923;42.506;24.192;2023-05-25T00:18:09;95451.78;;;9.51;91.65
61961;BME280;47923;42.506;24.192;2023-05-25T00:20:34;95488.81;;;9.70;92.48
61961;BME280;47923;42.506;24.192;2023-05-25T00:23:00;95474.97;;;9.72;92.09
61961;BME280;47923;42.506;24.192;2023-05-25T00:25:27;95365.69;;;8.92;90.97
61961;BME280;47923;42.506;24.192;2023-05-25T00:27:52;95494.28;;;9.74;91.08
61961;BME280;47923;42.506;24.192;2023-05-25T00:30:18;95491.50;;;9.70;90.88
61961;BME280;47923;42.506;24.192;2023-05-25T00:32:43;95488.47;;;9.72;90.71
61961;BME280;47923;42.506;24.192;2023-05-25T00:35:09;95491.41;;;9.66;91.16
61961;BME280;47923;42.506;24.192;2023-05-25T00:37:34;95484.38;;;9.62;91.14
61961;BME280;47923;42.506;24.192;2023-05-25T00:40:00;95468.03;;;9.39;91.41
61961;BME280;47923;42.506;24.192;2023-05-25T00:42:25;95487.41;;;9.60;92.17
61961;BME280;47923;42.506;24.192;2023-05-25T00:44:52;95325.38;;;8.48;93.52
61961;BME280;47923;42.506;24.192;2023-05-25T00:47:18;95477.09;;;9.47;93.58
61961;BME280;47923;42.506;24.192;2023-05-25T00:49:46;95444.75;;;9.15;93.81
61961;BME280;47923;42.506;24.192;2023-05-25T00:52:12;95483.91;;;9.40;94.30
61961;BME280;47923;42.506;24.192;2023-05-25T00:54:38;95493.44;;;9.38;95.69
61961;BME280;47923;42.506;24.192;2023-05-25T00:57:06;95491.81;;;9.33;95.65
61961;BME280;47923;42.506;24.192;2023-05-25T00:59:43;95207.13;;;7.48;95.32
61961;BME280;47923;42.506;24.192;2023-05-25T01:02:11;95495.44;;;9.25;95.81
61961;BME280;47923;42.506;24.192;2023-05-25T01:04:49;95357.31;;;8.34;95.52
61961;BME280;47923;42.506;24.192;2023-05-25T01:07:26;95488.41;;;9.21;96.26
61961;BME280;47923;42.506;24.192;2023-05-25T01:10:00;95503.38;;;9.18;96.73
61961;BME280;47923;42.506;24.192;2023-05-25T01:12:34;95260.97;;;7.64;96.68
61961;BME280;47923;42.506;24.192;2023-05-25T01:15:02;95280.38;;;7.57;96.24
61961;BME280;47923;42.506;24.192;2023-05-25T01:17:28;95480.69;;;9.03;96.02
61961;BME280;47923;42.506;24.192;2023-05-25T01:19:54;95416.16;;;8.47;96.93
61961;BME280;47923;42.506;24.192;2023-05-25T01:22:46;95488.59;;;8.96;97.21
61961;BME280;47923;42.506;24.192;2023-05-25T01:25:38;95381.34;;;8.26;95.88
61961;BME280;47923;42.506;24.192;2023-05-25T01:28:06;95440.16;;;8.68;95.39
61961;BME280;47923;42.506;24.192;2023-05-25T01:30:34;95482.56;;;9.03;93.63
61961;BME280;47923;42.506;24.192;2023-05-25T01:33:01;95485.28;;;9.03;94.04
61961;BME280;47923;42.506;24.192;2023-05-25T01:35:27;95486.50;;;9.05;93.92
61961;BME280;47923;42.506;24.192;2023-05-25T01:37:53;95490.75;;;9.06;93.65
61961;BME280;47923;42.506;24.192;2023-05-25T01:40:19;95497.28;;;9.05;94.03
61961;BME280;47923;42.506;24.192;2023-05-25T01:42:45;95375.19;;;8.26;94.03
61961;BME280;47923;42.506;24.192;2023-05-25T01:45:12;95487.34;;;9.09;94.67
61961;BME280;47923;42.506;24.192;2023-05-25T01:47:55;95309.31;;;7.92;95.68
61961;BME280;47923;42.506;24.192;2023-05-25T01:50:29;95486.56;;;9.09;95.95
61961;BME280;47923;42.506;24.192;2023-05-25T01:53:03;95437.88;;;8.70;95.90
61961;BME280;47923;42.506;24.192;2023-05-25T01:55:38;95425.09;;;8.51;95.67
61961;BME280;47923;42.506;24.192;2023-05-25T01:58:07;95407.63;;;8.45;95.64
61961;BME280;47923;42.506;24.192;2023-05-25T02:00:33;95472.97;;;8.74;96.23
61961;BME280;47923;42.506;24.192;2023-05-25T02:03:00;95418.66;;;8.40;96.27
61961;BME280;47923;42.506;24.192;2023-05-25T02:05:25;95470.25;;;8.58;96.49
61961;BME280;47923;42.506;24.192;2023-05-25T02:07:52;95429.31;;;8.37;97.00
61961;BME280;47923;42.506;24.192;2023-05-25T02:10:18;95415.63;;;8.29;97.45
61961;BME280;47923;42.506;24.192;2023-05-25T02:12:44;95483.09;;;8.77;96.92
61961;BME280;47923;42.506;24.192;2023-05-25T02:15:11;95487.34;;;8.78;96.66
61961;BME280;47923;42.506;24.192;2023-05-25T02:17:36;95375.19;;;7.98;95.82
61961;BME280;47923;42.506;24.192;2023-05-25T02:20:05;95281.19;;;7.45;95.13
61961;BME280;47923;42.506;24.192;2023-05-25T02:22:35;95493.34;;;8.87;96.71
61961;BME280;47923;42.506;24.192;2023-05-25T02:25:02;95474.38;;;8.68;96.34
61961;BME280;47923;42.506;24.192;2023-05-25T02:27:27;95251.38;;;7.23;96.34
61961;BME280;47923;42.506;24.192;2023-05-25T02:29:53;95470.81;;;8.36;97.07
61961;BME280;47923;42.506;24.192;2023-05-25T02:32:18;95438.63;;;8.39;96.08
61961;BME280;47923;42.506;24.192;2023-05-25T02:34:44;95511.59;;;8.78;95.22
61961;BME280;47923;42.506;24.192;2023-05-25T02:37:11;95478.03;;;8.60;94.98
61961;BME280;47923;42.506;24.192;2023-05-25T02:39:36;95464.63;;;8.63;96.36
61961;BME280;47923;42.506;24.192;2023-05-25T02:42:02;95374.25;;;8.06;96.55
61961;BME280;47923;42.506;24.192;2023-05-25T02:44:27;95497.16;;;8.86;96.82
61961;BME280;47923;42.506;24.192;2023-05-25T02:46:53;95503.44;;;8.90;96.64
61961;BME280;47923;42.506;24.192;2023-05-25T02:49:18;95406.00;;;8.28;96.20
61961;BME280;47923;42.506;24.192;2023-05-25T02:51:44;95260.84;;;7.32;96.05
61961;BME280;47923;42.506;24.192;2023-05-25T02:54:09;95507.94;;;8.86;96.89
61961;BME280;47923;42.506;24.192;2023-05-25T02:56:34;95507.94;;;8.86;95.94
61961;BME280;47923;42.506;24.192;2023-05-25T02:59:00;95501.53;;;8.91;94.72
61961;BME280;47923;42.506;24.192;2023-05-25T03:01:25;95022.78;;;5.63;94.78
61961;BME280;47923;42.506;24.192;2023-05-25T03:03:55;95509.88;;;9.01;94.45
61961;BME280;47923;42.506;24.192;2023-05-25T03:06:20;95324.47;;;7.84;95.28
61961;BME280;47923;42.506;24.192;2023-05-25T03:08:47;95513.09;;;9.07;95.58
61961;BME280;47923;42.506;24.192;2023-05-25T03:11:13;95512.59;;;9.33;95.43
61961;BME280;47923;42.506;24.192;2023-05-25T03:13:38;95368.81;;;8.46;94.44
61961;BME280;47923;42.506;24.192;2023-05-25T03:16:04;95303.13;;;8.19;93.24
61961;BME280;47923;42.506;24.192;2023-05-25T03:18:30;95142.88;;;7.27;92.00
61961;BME280;47923;42.506;24.192;2023-05-25T03:20:56;95322.88;;;8.55;92.36
61961;BME280;47923;42.506;24.192;2023-05-25T03:23:21;95401.47;;;9.08;92.29
61961;BME280;47923;42.506;24.192;2023-05-25T03:25:47;95523.03;;;10.01;91.77
61961;BME280;47923;42.506;24.192;2023-05-25T03:28:12;95527.44;;;10.09;91.22
61961;BME280;47923;42.506;24.192;2023-05-25T03:30:38;95432.09;;;9.86;89.88
61961;BME280;47923;42.506;24.192;2023-05-25T03:33:03;95464.78;;;10.19;89.48
61961;BME280;47923;42.506;24.192;2023-05-25T03:35:31;95481.44;;;10.60;87.76
61961;BME280;47923;42.506;24.192;2023-05-25T03:37:56;95512.78;;;11.07;86.58
61961;BME280;47923;42.506;24.192;2023-05-25T03:40:22;95496.28;;;11.12;86.83
61961;BME280;47923;42.506;24.192;2023-05-25T03:42:47;95520.50;;;11.51;85.50
61961;BME280;47923;42.506;24.192;2023-05-25T03:45:13;95438.53;;;11.24;84.14
61961;BME280;47923;42.506;24.192;2023-05-25T03:47:38;95537.81;;;12.22;83.27
61961;BME280;47923;42.506;24.192;2023-05-25T03:50:04;95528.47;;;12.46;81.61
61961;BME280;47923;42.506;24.192;2023-05-25T03:52:31;95402.91;;;11.98;80.27
61961;BME280;47923;42.506;24.192;2023-05-25T03:54:57;95481.00;;;12.93;79.64
61961;BME280;47923;42.506;24.192;2023-05-25T03:57:22;95527.97;;;13.89;75.43
61961;BME280;47923;42.506;24.192;2023-05-25T03:59:48;95518.59;;;14.42;73.56
61961;BME280;47923;42.506;24.192;2023-05-25T04:02:13;95482.72;;;15.48;68.30
61961;BME280;47923;42.506;24.192;2023-05-25T04:04:39;95497.88;;;17.74;61.27
61961;BME280;47923;42.506;24.192;2023-05-25T04:07:06;95442.03;;;19.12;53.34
61961;BME280;47923;42.506;24.192;2023-05-25T04:09:32;95514.34;;;20.82;49.31
61961;BME280;47923;42.506;24.192;2023-05-25T04:11:58;95365.47;;;20.74;44.89
61961;BME280;47923;42.506;24.192;2023-05-25T04:14:23;95336.94;;;20.88;44.03
61961;BME280;47923;42.506;24.192;2023-05-25T04:16:49;95502.81;;;22.57;42.43
61961;BME280;47923;42.506;24.192;2023-05-25T04:19:14;95383.78;;;20.97;43.31
61961;BME280;47923;42.506;24.192;2023-05-25T04:21:40;95511.91;;;21.23;44.95
61961;BME280;47923;42.506;24.192;2023-05-25T04:24:05;95517.44;;;20.44;47.16
61961;BME280;47923;42.506;24.192;2023-05-25T04:26:32;95334.44;;;18.61;48.39
61961;BME280;47923;42.506;24.192;2023-05-25T04:28:57;95484.41;;;18.73;51.69
61961;BME280;47923;42.506;24.192;2023-05-25T04:31:26;95533.88;;;18.52;53.83
61961;BME280;47923;42.506;24.192;2023-05-25T04:33:51;95528.84;;;18.05;55.90
61961;BME280;47923;42.506;24.192;2023-05-25T04:36:17;95300.19;;;15.98;58.54
61961;BME280;47923;42.506;24.192;2023-05-25T04:38:46;95525.81;;;17.40;59.20
61961;BME280;47923;42.506;24.192;2023-05-25T04:41:15;95528.59;;;17.89;57.83
61961;BME280;47923;42.506;24.192;2023-05-25T04:43:41;95523.09;;;17.37;59.66
61961;BME280;47923;42.506;24.192;2023-05-25T04:46:10;95429.91;;;16.65;60.39
61961;BME280;47923;42.506;24.192;2023-05-25T04:48:35;95509.81;;;17.39;59.33
61961;BME280;47923;42.506;24.192;2023-05-25T04:51:03;95539.03;;;17.46;59.66
61961;BME280;47923;42.506;24.192;2023-05-25T04:53:29;95384.44;;;16.48;60.34
61961;BME280;47923;42.506;24.192;2023-05-25T04:55:54;95536.84;;;17.23;61.48
61961;BME280;47923;42.506;24.192;2023-05-25T04:58:23;95538.66;;;17.44;60.41
61961;BME280;47923;42.506;24.192;2023-05-25T05:00:49;95501.06;;;17.06;60.90
61961;BME280;47923;42.506;24.192;2023-05-25T05:03:14;95289.91;;;16.90;58.36
61961;BME280;47923;42.506;24.192;2023-05-25T05:05:40;95479.47;;;18.91;54.76
61961;BME280;47923;42.506;24.192;2023-05-25T05:08:05;95532.50;;;19.04;55.73
61961;BME280;47923;42.506;24.192;2023-05-25T05:10:31;95549.19;;;18.80;56.54
61961;BME280;47923;42.506;24.192;2023-05-25T05:12:56;95510.75;;;18.18;58.68
61961;BME280;47923;42.506;24.192;2023-05-25T05:15:22;95524.44;;;17.70;60.33
61961;BME280;47923;42.506;24.192;2023-05-25T05:17:47;95544.19;;;17.36;61.97
61961;BME280;47923;42.506;24.192;2023-05-25T05:20:13;95544.38;;;17.04;63.50
61961;BME280;47923;42.506;24.192;2023-05-25T05:22:38;95560.78;;;16.97;64.12
61961;BME280;47923;42.506;24.192;2023-05-25T05:25:05;95541.25;;;16.95;65.13
61961;BME280;47923;42.506;24.192;2023-05-25T05:27:31;95542.38;;;17.12;64.49
61961;BME280;47923;42.506;24.192;2023-05-25T05:29:57;95541.34;;;17.51;63.35
61961;BME280;47923;42.506;24.192;2023-05-25T05:32:22;95390.91;;;16.79;63.07
61961;BME280;47923;42.506;24.192;2023-05-25T05:34:48;95449.91;;;17.18;63.03
61961;BME280;47923;42.506;24.192;2023-05-25T05:37:14;95320.22;;;16.40;62.93
61961;BME280;47923;42.506;24.192;2023-05-25T05:39:42;95472.81;;;17.83;61.09
61961;BME280;47923;42.506;24.192;2023-05-25T05:42:07;95542.31;;;18.68;59.77
61961;BME280;47923;42.506;24.192;2023-05-25T05:44:35;95428.25;;;18.27;58.73
61961;BME280;47923;42.506;24.192;2023-05-25T05:47:01;95549.44;;;20.04;55.79
61961;BME280;47923;42.506;24.192;2023-05-25T05:49:30;95538.13;;;21.08;52.49
61961;BME280;47923;42.506;24.192;2023-05-25T05:51:56;95540.03;;;21.11;51.63
61961;BME280;47923;42.506;24.192;2023-05-25T05:54:21;95537.84;;;21.03;52.03
61961;BME280;47923;42.506;24.192;2023-05-25T05:56:48;95480.94;;;20.24;53.77
61961;BME280;47923;42.506;24.192;2023-05-25T05:59:13;95508.28;;;20.70;53.30
61961;BME280;47923;42.506;24.192;2023-05-25T06:01:39;95542.91;;;21.04;52.03
61961;BME280;47923;42.506;24.192;2023-05-25T06:04:08;95212.19;;;18.81;52.17
61961;BME280;47923;42.506;24.192;2023-05-25T06:06:33;95531.00;;;21.11;51.63
61961;BME280;47923;42.506;24.192;2023-05-25T06:08:59;95544.75;;;21.31;51.62
61961;BME280;47923;42.506;24.192;2023-05-25T06:11:27;95418.84;;;20.73;50.54
61961;BME280;47923;42.506;24.192;2023-05-25T06:13:53;95407.19;;;20.49;50.88
61961;BME280;47923;42.506;24.192;2023-05-25T06:16:18;95451.63;;;21.16;50.28
61961;BME280;47923;42.506;24.192;2023-05-25T06:18:47;95179.00;;;19.62;50.31
61961;BME280;47923;42.506;24.192;2023-05-25T06:21:12;95543.03;;;22.22;49.93
61961;BME280;47923;42.506;24.192;2023-05-25T06:23:37;95539.06;;;22.23;49.33
61961;BME280;47923;42.506;24.192;2023-05-25T06:26:06;95547.63;;;22.12;49.80
61961;BME280;47923;42.506;24.192;2023-05-25T06:28:31;95544.00;;;22.15;50.11
61961;BME280;47923;42.506;24.192;2023-05-25T06:30:57;95449.72;;;21.82;49.26
61961;BME280;47923;42.506;24.192;2023-05-25T06:33:23;95552.44;;;22.53;49.43
61961;BME280;47923;42.506;24.192;2023-05-25T06:35:48;95548.88;;;22.69;48.05
61961;BME280;47923;42.506;24.192;2023-05-25T06:38:14;95549.88;;;22.46;48.87
61961;BME280;47923;42.506;24.192;2023-05-25T06:40:40;95549.59;;;22.57;49.23
61961;BME280;47923;42.506;24.192;2023-05-25T06:43:05;95547.56;;;22.74;48.52
61961;BME280;47923;42.506;24.192;2023-05-25T06:45:31;95552.72;;;22.88;48.24
61961;BME280;47923;42.506;24.192;2023-05-25T06:47:56;95522.03;;;23.02;48.34
61961;BME280;47923;42.506;24.192;2023-05-25T06:50:22;95418.63;;;22.43;47.53
61961;BME280;47923;42.506;24.192;2023-05-25T06:52:47;95422.31;;;22.24;48.12
61961;BME280;47923;42.506;24.192;2023-05-25T06:55:13;95528.50;;;22.67;48.86
61961;BME280;47923;42.506;24.192;2023-05-25T06:57:39;95488.50;;;22.33;49.06
61961;BME280;47923;42.506;24.192;2023-05-25T07:00:05;95411.69;;;22.10;48.74
61961;BME280;47923;42.506;24.192;2023-05-25T07:02:33;95548.47;;;23.00;49.11
61961;BME280;47923;42.506;24.192;2023-05-25T07:04:59;95347.13;;;21.69;49.13
61961;BME280;47923;42.506;24.192;2023-05-25T07:07:25;95245.81;;;20.44;50.54
61961;BME280;47923;42.506;24.192;2023-05-25T07:09:50;95540.00;;;21.67;51.19
61961;BME280;47923;42.506;24.192;2023-05-25T07:12:16;95375.69;;;20.34;53.85
61961;BME280;47923;42.506;24.192;2023-05-25T07:14:42;95542.56;;;21.58;53.30
61961;BME280;47923;42.506;24.192;2023-05-25T07:17:12;95298.94;;;20.14;53.27
61961;BME280;47923;42.506;24.192;2023-05-25T07:19:38;95509.50;;;21.62;52.17
61961;BME280;47923;42.506;24.192;2023-05-25T07:22:03;95554.97;;;21.83;52.69
61961;BME280;47923;42.506;24.192;2023-05-25T07:24:29;95427.03;;;20.93;53.47
61961;BME280;47923;42.506;24.192;2023-05-25T07:26:55;95560.03;;;21.84;53.57
61961;BME280;47923;42.506;24.192;2023-05-25T07:29:20;95558.56;;;21.96;53.27
61961;BME280;47923;42.506;24.192;2023-05-25T07:31:46;95559.72;;;22.15;53.70
61961;BME280;47923;42.506;24.192;2023-05-25T07:34:11;95568.66;;;22.35;53.45
61961;BME280;47923;42.506;24.192;2023-05-25T07:36:37;95555.44;;;22.59;53.20
61961;BME280;47923;42.506;24.192;2023-05-25T07:39:02;95561.97;;;22.65;53.15
61961;BME280;47923;42.506;24.192;2023-05-25T07:41:28;95558.63;;;22.57;52.33
61961;BME280;47923;42.506;24.192;2023-05-25T07:43:53;95475.97;;;21.99;53.22
61961;BME280;47923;42.506;24.192;2023-05-25T07:46:19;95514.56;;;22.28;52.65
61961;BME280;47923;42.506;24.192;2023-05-25T07:48:49;95389.25;;;21.33;50.80
61961;BME280;47923;42.506;24.192;2023-05-25T07:51:14;95572.63;;;22.34;49.45
61961;BME280;47923;42.506;24.192;2023-05-25T07:53:40;95567.19;;;22.30;48.39
61961;BME280;47923;42.506;24.192;2023-05-25T07:56:07;95571.16;;;22.29;48.54
61961;BME280;47923;42.506;24.192;2023-05-25T07:58:33;95573.47;;;22.31;48.33
61961;BME280;47923;42.506;24.192;2023-05-25T08:00:58;95552.22;;;21.83;48.65
61961;BME280;47923;42.506;24.192;2023-05-25T08:03:24;95579.09;;;22.11;48.62
61961;BME280;47923;42.506;24.192;2023-05-25T08:05:50;95574.00;;;22.10;47.95
61961;BME280;47923;42.506;24.192;2023-05-25T08:08:16;95575.28;;;22.05;47.16
61961;BME280;47923;42.506;24.192;2023-05-25T08:10:41;95503.13;;;21.48;47.07
61961;BME280;47923;42.506;24.192;2023-05-25T08:13:08;95576.88;;;21.70;47.63
61961;BME280;47923;42.506;24.192;2023-05-25T08:15:33;95569.91;;;20.89;49.76
61961;BME280;47923;42.506;24.192;2023-05-25T08:17:59;95573.47;;;20.66;49.51
61961;BME280;47923;42.506;24.192;2023-05-25T08:20:24;95572.09;;;20.31;49.75
61961;BME280;47923;42.506;24.192;2023-05-25T08:22:50;95571.44;;;20.24;49.74
61961;BME280;47923;42.506;24.192;2023-05-25T08:25:18;95555.66;;;20.31;49.14
61961;BME280;47923;42.506;24.192;2023-05-25T08:27:43;95563.44;;;20.56;48.25
61961;BME280;47923;42.506;24.192;2023-05-25T08:30:09;95126.09;;;17.31;46.68
61961;BME280;47923;42.506;24.192;2023-05-25T08:32:35;95532.78;;;20.38;46.74
61961;BME280;47923;42.506;24.192;2023-05-25T08:35:00;95487.03;;;20.11;46.11
61961;BME280;47923;42.506;24.192;2023-05-25T08:37:30;95331.75;;;19.11;46.13
61961;BME280;47923;42.506;24.192;2023-05-25T08:39:55;95467.44;;;20.13;43.25
61961;BME280;47923;42.506;24.192;2023-05-25T08:42:21;95558.78;;;20.96;45.04
61961;BME280;47923;42.506;24.192;2023-05-25T08:44:47;95245.44;;;19.03;46.59
61961;BME280;47923;42.506;24.192;2023-05-25T08:47:16;95551.72;;;21.15;45.62
61961;BME280;47923;42.506;24.192;2023-05-25T08:49:43;95552.31;;;21.43;44.48
61961;BME280;47923;42.506;24.192;2023-05-25T08:52:11;95557.63;;;21.86;41.85
61961;BME280;47923;42.506;24.192;2023-05-25T08:54:38;95549.50;;;22.60;38.72
61961;BME280;47923;42.506;24.192;2023-05-25T08:57:14;95266.06;;;22.95;36.44
61961;BME280;47923;42.506;24.192;2023-05-25T09:00:03;95538.16;;;27.25;31.92
61961;BME280;47923;42.506;24.192;2023-05-25T09:02:47;95541.94;;;28.94;27.52
61961;BME280;47923;42.506;24.192;2023-05-25T09:05:15;95355.53;;;29.17;26.26
61961;BME280;47923;42.506;24.192;2023-05-25T09:07:42;95536.44;;;32.08;26.28
61961;BME280;47923;42.506;24.192;2023-05-25T09:10:08;95524.91;;;32.86;26.23
61961;BME280;47923;42.506;24.192;2023-05-25T09:12:35;95534.47;;;34.12;21.85
61961;BME280;47923;42.506;24.192;2023-05-25T09:15:02;95529.59;;;35.81;20.54
61961;BME280;47923;42.506;24.192;2023-05-25T09:17:28;95530.34;;;36.42;19.76
61961;BME280;47923;42.506;24.192;2023-05-25T09:19:54;95524.53;;;36.59;18.79
61961;BME280;47923;42.506;24.192;2023-05-25T09:22:20;95525.06;;;37.19;18.03
61961;BME280;47923;42.506;24.192;2023-05-25T09:24:46;95521.81;;;38.11;18.00
61961;BME280;47923;42.506;24.192;2023-05-25T09:27:15;95520.34;;;37.78;17.61
61961;BME280;47923;42.506;24.192;2023-05-25T09:29:50;95516.22;;;38.25;16.57
61961;BME280;47923;42.506;24.192;2023-05-25T09:32:16;95511.28;;;37.85;16.57
61961;BME280;47923;42.506;24.192;2023-05-25T09:34:43;95505.19;;;39.61;15.32
61961;BME280;47923;42.506;24.192;2023-05-25T09:37:13;95498.44;;;39.51;13.87
61961;BME280;47923;42.506;24.192;2023-05-25T09:39:43;95494.63;;;40.60;13.30
61961;BME280;47923;42.506;24.192;2023-05-25T09:42:10;95448.88;;;40.85;12.51
61961;BME280;47923;42.506;24.192;2023-05-25T09:44:36;95492.00;;;41.58;11.67
61961;BME280;47923;42.506;24.192;2023-05-25T09:47:01;95449.78;;;40.72;12.18
61961;BME280;47923;42.506;24.192;2023-05-25T09:49:27;95317.91;;;41.61;12.39
61961;BME280;47923;42.506;24.192;2023-05-25T09:51:53;95488.13;;;42.85;10.51
61961;BME280;47923;42.506;24.192;2023-05-25T09:54:20;95428.16;;;41.80;11.86
61961;BME280;47923;42.506;24.192;2023-05-25T09:56:47;95492.63;;;41.94;11.81
61961;BME280;47923;42.506;24.192;2023-05-25T09:59:12;95385.31;;;41.01;12.15
61961;BME280;47923;42.506;24.192;2023-05-25T10:01:39;95480.69;;;42.27;11.82
61961;BME280;47923;42.506;24.192;2023-05-25T10:04:04;95426.34;;;42.38;11.84
61961;BME280;47923;42.506;24.192;2023-05-25T10:06:31;95424.63;;;42.42;11.23
61961;BME280;47923;42.506;24.192;2023-05-25T10:08:57;95476.34;;;41.95;12.59
61961;BME280;47923;42.506;24.192;2023-05-25T10:11:25;95343.44;;;41.30;12.38
61961;BME280;47923;42.506;24.192;2023-05-25T10:13:53;95466.31;;;41.86;12.34
61961;BME280;47923;42.506;24.192;2023-05-25T10:16:24;95442.47;;;41.36;12.72
61961;BME280;47923;42.506;24.192;2023-05-25T10:19:00;95374.91;;;40.96;12.09
61961;BME280;47923;42.506;24.192;2023-05-25T10:21:29;95306.19;;;41.03;13.01
61961;BME280;47923;42.506;24.192;2023-05-25T10:24:11;95449.78;;;40.08;14.60
61961;BME280;47923;42.506;24.192;2023-05-25T10:26:39;95236.47;;;36.30;16.14
61961;BME280;47923;42.506;24.192;2023-05-25T10:29:06;95425.09;;;35.83;15.95
61961;BME280;47923;42.506;24.192;2023-05-25T10:31:34;95420.66;;;34.56;17.57
61961;BME280;47923;42.506;24.192;2023-05-25T10:34:02;95442.50;;;34.05;17.56
61961;BME280;47923;42.506;24.192;2023-05-25T10:36:27;95330.63;;;32.87;19.09
61961;BME280;47923;42.506;24.192;2023-05-25T10:38:55;95448.66;;;33.75;18.77
61961;BME280;47923;42.506;24.192;2023-05-25T10:41:21;95440.69;;;34.19;18.31
61961;BME280;47923;42.506;24.192;2023-05-25T10:43:47;95444.25;;;34.14;17.94
61961;BME280;47923;42.506;24.192;2023-05-25T10:46:14;95439.81;;;34.52;18.06
61961;BME280;47923;42.506;24.192;2023-05-25T10:48:45;95438.22;;;33.93;18.20
61961;BME280;47923;42.506;24.192;2023-05-25T10:51:11;95434.97;;;33.44;18.65
61961;BME280;47923;42.506;24.192;2023-05-25T10:53:42;95410.22;;;33.03;19.40
61961;BME280;47923;42.506;24.192;2023-05-25T10:56:09;95372.94;;;32.30;18.68
61961;BME280;47923;42.506;24.192;2023-05-25T10:58:40;95440.72;;;32.84;19.82
61961;BME280;47923;42.506;24.192;2023-05-25T11:01:10;95437.25;;;30.46;20.70
61961;BME280;47923;42.506;24.192;2023-05-25T11:06:12;95452.00;;;29.41;21.92
61961;BME280;47923;42.506;24.192;2023-05-25T11:08:59;95473.09;;;28.26;23.21
61961;BME280;47923;42.506;24.192;2023-05-25T11:14:39;95449.00;;;23.61;35.54
61961;BME280;47923;42.506;24.192;2023-05-25T11:17:17;95571.63;;;22.57;40.65
61961;BME280;47923;42.506;24.192;2023-05-25T11:19:58;95440.19;;;20.65;46.24
61961;BME280;47923;42.506;24.192;2023-05-25T11:22:33;95446.56;;;19.22;58.74
61961;BME280;47923;42.506;24.192;2023-05-25T11:25:02;95570.66;;;18.85;60.95
61961;BME280;47923;42.506;24.192;2023-05-25T11:27:46;95567.16;;;18.43;66.04
61961;BME280;47923;42.506;24.192;2023-05-25T11:30:16;95423.75;;;16.54;70.36
61961;BME280;47923;42.506;24.192;2023-05-25T11:32:51;95572.28;;;17.30;75.27
61961;BME280;47923;42.506;24.192;2023-05-25T11:35:17;95545.66;;;16.75;81.02
61961;BME280;47923;42.506;24.192;2023-05-25T11:37:48;95446.06;;;14.56;96.19
61961;BME280;47923;42.506;24.192;2023-05-25T11:40:15;95299.06;;;13.12;100.00
61961;BME280;47923;42.506;24.192;2023-05-25T11:42:41;95494.13;;;14.45;100.00
61961;BME280;47923;42.506;24.192;2023-05-25T11:45:10;95514.16;;;14.92;100.00
61961;BME280;47923;42.506;24.192;2023-05-25T11:47:38;95385.38;;;14.34;100.00
61961;BME280;47923;42.506;24.192;2023-05-25T11:50:04;95534.88;;;15.43;100.00
61961;BME280;47923;42.506;24.192;2023-05-25T11:52:30;95546.97;;;15.88;100.00
61961;BME280;47923;42.506;24.192;2023-05-25T11:54:55;95538.78;;;15.85;100.00
61961;BME280;47923;42.506;24.192;2023-05-25T11:57:22;95589.72;;;16.41;100.00
61961;BME280;47923;42.506;24.192;2023-05-25T11:59:50;95600.59;;;16.59;100.00
61961;BME280;47923;42.506;24.192;2023-05-25T12:02:16;95547.66;;;16.46;100.00
61961;BME280;47923;42.506;24.192;2023-05-25T12:04:54;95310.91;;;15.10;100.00
61961;BME280;47923;42.506;24.192;2023-05-25T12:07:20;95589.56;;;17.09;100.00
61961;BME280;47923;42.506;24.192;2023-05-25T12:09:46;95265.41;;;15.25;100.00
61961;BME280;47923;42.506;24.192;2023-05-25T12:12:12;95587.50;;;17.34;92.67
61961;BME280;47923;42.506;24.192;2023-05-25T12:14:52;95487.31;;;16.37;89.67
61961;BME280;47923;42.506;24.192;2023-05-25T12:17:19;95437.59;;;15.97;92.07
61961;BME280;47923;42.506;24.192;2023-05-25T12:19:45;95274.75;;;15.03;89.88
61961;BME280;47923;42.506;24.192;2023-05-25T12:22:12;95576.78;;;16.84;91.06
61961;BME280;47923;42.506;24.192;2023-05-25T12:24:39;95441.34;;;16.39;92.55
61961;BME280;47923;42.506;24.192;2023-05-25T12:27:16;95573.75;;;17.49;89.57
61961;BME280;47923;42.506;24.192;2023-05-25T12:29:45;95561.44;;;17.85;90.82
61961;BME280;47923;42.506;24.192;2023-05-25T12:32:12;95426.09;;;17.18;88.05
61961;BME280;47923;42.506;24.192;2023-05-25T12:34:37;95468.53;;;17.82;87.46
61961;BME280;47923;42.506;24.192;2023-05-25T12:37:03;95547.22;;;18.42;88.32
61961;BME280;47923;42.506;24.192;2023-05-25T12:41:55;95565.69;;;18.76;88.25
61961;BME280;47923;42.506;24.192;2023-05-25T12:44:28;95555.25;;;18.98;88.72
61961;BME280;47923;42.506;24.192;2023-05-25T12:47:17;95473.84;;;18.71;86.11
61961;BME280;47923;42.506;24.192;2023-05-25T12:50:09;95565.06;;;19.53;88.65
61961;BME280;47923;42.506;24.192;2023-05-25T12:52:41;95191.94;;;17.36;87.36
61961;BME280;47923;42.506;24.192;2023-05-25T12:55:26;95547.56;;;19.74;84.52
61961;BME280;47923;42.506;24.192;2023-05-25T12:57:53;95544.06;;;19.97;84.96
61961;BME280;47923;42.506;24.192;2023-05-25T13:00:40;95549.31;;;20.11;83.43
61961;BME280;47923;42.506;24.192;2023-05-25T13:03:07;95516.47;;;20.31;79.17